createdAt,value
2017-05-05T00:02:36.955Z,81.79
2017-05-05T00:05:07.938Z,82.46
2017-05-05T00:07:33.419Z,82.28
2017-05-05T00:09:48.482Z,81.89
2017-05-05T00:12:19.450Z,81.6
2017-05-05T00:14:34.453Z,80.88
2017-05-05T00:18:42.704Z,81.6
2017-05-05T00:21:06.225Z,81.07
2017-05-05T00:23:29.723Z,81.26
2017-05-05T00:25:53.205Z,81.36
2017-05-05T00:28:16.687Z,80.88
2017-05-05T00:30:41.175Z,80.88
2017-05-05T00:33:06.665Z,80.79
2017-05-05T00:35:32.153Z,79.64
2017-05-05T00:37:47.192Z,80.3
2017-05-05T00:40:10.685Z,79.83
2017-05-05T00:42:20.848Z,80.11
2017-05-05T00:44:44.425Z,80.02
2017-05-05T00:47:07.891Z,80.11
2017-05-05T00:49:31.368Z,80.69
2017-05-05T00:51:54.834Z,80.84
2017-05-05T00:54:18.323Z,82.03
2017-05-05T00:56:20.001Z,81.26
2017-05-05T00:58:43.532Z,80.4
2017-05-05T01:01:06.958Z,80.3
2017-05-05T01:03:30.416Z,80.4
2017-05-05T01:05:54.866Z,80.98
2017-05-05T01:08:18.345Z,80.98
2017-05-05T01:10:42.857Z,80.4
2017-05-05T01:13:12.879Z,81.26
2017-05-05T01:15:37.365Z,82.08
2017-05-05T01:18:00.844Z,81.65
2017-05-05T01:20:15.908Z,81.51
2017-05-05T01:22:39.317Z,81.26
2017-05-05T01:24:49.505Z,80.79
2017-05-05T01:27:13.001Z,80.59
2017-05-05T01:29:36.498Z,80.02
2017-05-05T01:31:59.991Z,80.3
2017-05-05T01:34:24.417Z,80.4
2017-05-05T01:36:47.847Z,80.69
2017-05-05T01:39:12.249Z,81.99
2017-05-05T01:41:36.682Z,81.65
2017-05-05T01:43:51.680Z,81.41
2017-05-05T01:46:15.122Z,81.89
2017-05-05T01:48:38.520Z,81.36
2017-05-05T01:51:01.979Z,81.26
2017-05-05T01:53:17.043Z,80.4
2017-05-05T01:55:40.482Z,80.4
2017-05-05T01:58:03.957Z,79.83
2017-05-05T02:00:28.409Z,79.83
2017-05-05T02:02:51.812Z,80.4
2017-05-05T02:05:17.227Z,81.65
2017-05-05T02:07:40.750Z,80.98
2017-05-05T02:10:05.278Z,80.02
2017-05-05T02:12:28.705Z,79.64
2017-05-05T02:14:52.148Z,79.35
2017-05-05T02:17:15.568Z,80.5
2017-05-05T02:19:40.016Z,81.16
2017-05-05T02:22:03.495Z,80.98
2017-05-05T02:24:26.985Z,80.4
2017-05-05T02:26:50.499Z,80.11
2017-05-05T02:29:20.887Z,80.3
2017-05-05T02:31:45.379Z,81.16
2017-05-05T02:34:09.862Z,80.79
2017-05-05T02:36:33.234Z,80.4
2017-05-05T02:39:03.380Z,80.21
2017-05-05T02:41:26.830Z,81.26
2017-05-05T02:43:50.338Z,81.16
2017-05-05T02:46:14.778Z,81.26
2017-05-05T02:48:38.247Z,81.55
2017-05-05T02:51:01.718Z,81.65
2017-05-05T02:53:25.168Z,82.56
2017-05-05T02:55:48.658Z,82.46
2017-05-05T02:58:12.125Z,83.04
2017-05-05T03:00:35.679Z,81.6
2017-05-05T03:03:00.171Z,82.9
2017-05-05T03:05:23.629Z,83.28
2017-05-05T03:07:33.814Z,82.37
2017-05-05T03:09:57.296Z,81.6
2017-05-05T03:11:58.935Z,81.55
2017-05-05T03:14:22.408Z,81.41
2017-05-05T03:16:52.343Z,82.46
2017-05-05T03:19:15.825Z,81.41
2017-05-05T03:21:40.314Z,81.7
2017-05-05T03:24:03.774Z,80.84
2017-05-05T03:26:27.223Z,81.32
2017-05-05T03:28:51.626Z,82.56
2017-05-05T03:31:15.095Z,82.46
2017-05-05T03:33:38.517Z,82.9
2017-05-05T03:36:01.972Z,81.79
2017-05-05T03:38:25.430Z,82.23
2017-05-05T03:40:48.914Z,82.37
2017-05-05T03:43:18.855Z,82.18
2017-05-05T03:45:49.865Z,81.51
2017-05-05T03:48:13.331Z,81.07
2017-05-05T03:50:37.684Z,80.88
2017-05-05T03:53:02.138Z,80.93
2017-05-05T03:55:12.305Z,81.07
2017-05-05T03:57:43.687Z,80.21
2017-05-05T04:00:08.069Z,80.11
2017-05-05T04:02:40.169Z,80.5
2017-05-05T04:05:03.627Z,81.99
2017-05-05T04:07:27.089Z,83.18
2017-05-05T04:09:50.482Z,82.37
2017-05-05T04:12:06.512Z,81.6
2017-05-05T04:14:30.893Z,82.61
2017-05-05T04:16:55.330Z,82.9
2017-05-05T04:18:57.069Z,82.46
2017-05-05T04:21:20.554Z,81.99
2017-05-05T04:23:45.007Z,81.6
2017-05-05T04:26:08.472Z,81.89
2017-05-05T04:28:10.124Z,81.56
2017-05-05T04:30:33.562Z,83.18
2017-05-05T04:32:57.008Z,83.38
2017-05-05T04:35:27.007Z,82.42
2017-05-05T04:37:51.461Z,82.08
2017-05-05T04:40:16.885Z,81.56
2017-05-05T04:42:40.335Z,81.66
2017-05-05T04:45:03.733Z,81.95
2017-05-05T04:47:28.125Z,82.23
2017-05-05T04:49:51.536Z,81.56
2017-05-05T04:52:14.988Z,82.23
2017-05-05T04:54:16.672Z,81.95
2017-05-05T04:56:40.143Z,82.04
2017-05-05T04:58:56.172Z,81.56
2017-05-05T05:01:20.609Z,81.56
2017-05-05T05:03:45.048Z,80.74
2017-05-05T05:06:08.460Z,79.6
2017-05-05T05:08:31.923Z,78.39
2017-05-05T05:10:55.302Z,77.44
2017-05-05T05:14:54.923Z,77.53
2017-05-05T05:18:55.572Z,77.44
2017-05-05T05:21:05.803Z,76.29
2017-05-05T05:23:38.121Z,75.85
2017-05-05T05:27:37.755Z,75.62
2017-05-05T05:33:29.025Z,76
2017-05-05T05:37:31.615Z,73.97
2017-05-05T05:40:03.173Z,74.13
2017-05-05T05:42:18.314Z,74.51
2017-05-05T05:44:41.836Z,74.7
2017-05-05T05:47:22.101Z,74.7
2017-05-05T05:49:45.627Z,74.9
2017-05-05T05:52:11.151Z,76.48
2017-05-05T05:54:49.623Z,74.7
2017-05-05T05:58:32.918Z,77.21
2017-05-05T06:00:47.409Z,78.79
2017-05-05T06:04:38.677Z,78.64
2017-05-05T06:08:38.392Z,76.57
2017-05-05T06:12:38.130Z,75.43
2017-05-05T06:16:37.732Z,75.27
2017-05-05T06:18:39.448Z,75.81
2017-05-05T06:21:03.990Z,76
2017-05-05T06:23:14.156Z,75.47
2017-05-05T06:25:52.552Z,74.61
2017-05-05T06:30:17.254Z,73.88
2017-05-05T06:32:33.436Z,72.73
2017-05-05T06:36:33.063Z,73.88
2017-05-05T06:38:34.723Z,74.16
2017-05-05T06:42:34.469Z,72.73
2017-05-05T06:46:35.085Z,72.83
2017-05-05T06:50:34.853Z,72.73
2017-05-05T06:52:58.694Z,71.77
2017-05-05T06:56:50.425Z,72.79
2017-05-05T06:59:13.996Z,73.55
2017-05-05T07:01:37.500Z,74.32
2017-05-05T07:03:30.803Z,72.09
2017-05-05T07:05:24.823Z,71.33
2017-05-05T07:07:48.370Z,68.14
2017-05-05T07:10:03.544Z,62.71
2017-05-05T07:12:18.740Z,58.57
2017-05-05T07:14:34.018Z,53.36
2017-05-05T07:16:59.373Z,49.37
2017-05-05T07:19:10.704Z,48.83
2017-05-05T07:21:35.801Z,47.29
2017-05-05T07:23:37.544Z,44.46
2017-05-05T07:26:01.690Z,45.57
2017-05-05T07:28:25.839Z,43.2
2017-05-05T07:30:36.310Z,40.46
2017-05-05T07:33:00.467Z,40.23
2017-05-05T07:35:24.658Z,41.85
2017-05-05T07:37:48.891Z,42.25
2017-05-05T07:40:13.121Z,35.63
2017-05-05T07:42:28.962Z,38.17
2017-05-05T07:44:53.299Z,39.86
2017-05-05T07:47:17.714Z,37.98
2017-05-05T07:49:19.638Z,39.28
2017-05-05T07:51:44.184Z,38.37
2017-05-05T07:54:00.301Z,34.74
2017-05-05T07:56:16.446Z,32.18
2017-05-05T07:58:41.102Z,30.55
2017-05-05T08:01:05.842Z,30.05
2017-05-05T08:03:22.133Z,27.5
2017-05-05T08:05:46.935Z,27.59
2017-05-05T08:08:11.769Z,30.61
2017-05-05T08:10:36.634Z,27.84
2017-05-05T08:13:01.538Z,25.78
2017-05-05T08:15:26.494Z,22.05
2017-05-05T08:17:51.483Z,20.4
2017-05-05T08:19:59.498Z,24.88
2017-05-05T08:22:24.501Z,23.35
2017-05-05T08:24:49.512Z,20.86
2017-05-05T08:27:14.556Z,21.51
2017-05-05T08:29:39.618Z,20.25
2017-05-05T08:31:56.225Z,19.68
2017-05-05T08:34:22.380Z,19.77
2017-05-05T08:36:47.534Z,19.49
2017-05-05T08:38:58.284Z,23.22
2017-05-05T08:41:23.442Z,19.12
2017-05-05T08:43:48.548Z,16.9
2017-05-05T08:46:05.226Z,16.52
2017-05-05T08:48:30.407Z,20.06
2017-05-05T08:50:55.611Z,19.68
2017-05-05T08:53:20.764Z,17.08
2017-05-05T08:55:45.994Z,16.61
2017-05-05T08:58:11.246Z,16.52
2017-05-05T09:00:36.453Z,19.73
2017-05-05T09:03:01.629Z,21.17
2017-05-05T09:05:18.248Z,17.85
2017-05-05T09:07:43.342Z,18.49
2017-05-05T09:10:08.450Z,21.46
2017-05-05T09:12:24.977Z,22.02
2017-05-05T09:14:49.930Z,21.26
2017-05-05T09:17:14.874Z,21.06
2017-05-05T09:19:39.795Z,21.54
2017-05-05T09:22:04.666Z,25.07
2017-05-05T09:24:29.512Z,27.68
2017-05-05T09:26:54.305Z,30.05
2017-05-05T09:29:04.938Z,33.01
2017-05-05T09:31:29.673Z,33.76
2017-05-05T09:33:40.223Z,33.67
2017-05-05T09:36:04.838Z,34.89
2017-05-05T09:38:20.922Z,37.17
2017-05-05T09:40:36.942Z,37.83
2017-05-05T09:43:01.391Z,38.89
2017-05-05T09:45:17.312Z,42.47
2017-05-05T09:47:33.221Z,43.17
2017-05-05T09:49:57.544Z,42.11
2017-05-05T09:52:21.824Z,42.4
2017-05-05T09:54:46.065Z,41.72
2017-05-05T09:57:10.323Z,44.76
2017-05-05T09:59:34.557Z,45.05
2017-05-05T10:01:58.752Z,42.4
2017-05-05T10:04:22.930Z,41.77
2017-05-05T10:06:47.115Z,41.75
2017-05-05T10:09:11.293Z,42.28
2017-05-05T10:11:35.417Z,40.97
2017-05-05T10:13:59.610Z,41.07
2017-05-05T10:16:10.108Z,40.49
2017-05-05T10:18:34.359Z,39.54
2017-05-05T10:20:50.134Z,38.39
2017-05-05T10:22:53.054Z,38.12
2017-05-05T10:25:03.489Z,41.32
2017-05-05T10:27:27.747Z,39.2
2017-05-05T10:29:51.980Z,35.31
2017-05-05T10:32:16.238Z,33.6
2017-05-05T10:34:26.723Z,32.82
2017-05-05T10:36:51.061Z,30.86
2017-05-05T10:38:53.087Z,31.23
2017-05-05T10:41:17.488Z,30.63
2017-05-05T10:43:41.882Z,28.08
2017-05-05T10:46:06.281Z,28.3
2017-05-05T10:48:30.710Z,27.82
2017-05-05T10:50:55.155Z,26.86
2017-05-05T10:53:19.593Z,27.61
2017-05-05T10:55:30.134Z,28.66
2017-05-05T10:57:54.557Z,28.56
2017-05-05T11:00:19.002Z,30.29
2017-05-05T11:02:43.398Z,30.98
2017-05-05T11:05:07.827Z,31.81
2017-05-05T11:07:32.246Z,32.68
2017-05-05T11:09:34.991Z,32.94
2017-05-05T11:11:59.410Z,30.98
2017-05-05T11:14:23.850Z,29.12
2017-05-05T11:16:34.386Z,26.73
2017-05-05T11:18:36.363Z,29.02
2017-05-05T11:21:00.832Z,28.47
2017-05-05T11:23:25.211Z,29.15
2017-05-05T11:25:49.653Z,30.66
2017-05-05T11:28:14.092Z,30.88
2017-05-05T11:30:38.512Z,31.62
2017-05-05T11:33:02.891Z,30.66
2017-05-05T11:35:10.384Z,32.38
2017-05-05T11:37:34.773Z,33.05
2017-05-05T11:39:59.156Z,34.02
2017-05-05T11:42:15.069Z,34.58
2017-05-05T11:44:39.440Z,33.62
2017-05-05T11:46:55.387Z,34.95
2017-05-05T11:49:19.741Z,35.36
2017-05-05T11:51:44.096Z,34.1
2017-05-05T11:54:08.447Z,35.34
2017-05-05T11:56:32.768Z,33.91
2017-05-05T11:58:48.647Z,35.44
2017-05-05T12:01:12.934Z,34.66
2017-05-05T12:03:20.345Z,35.8
2017-05-05T12:05:30.826Z,34.48
2017-05-05T12:07:55.140Z,35.32
2017-05-05T12:10:19.443Z,37.98
2017-05-05T12:12:43.732Z,37.13
2017-05-05T12:15:08.048Z,34.56
2017-05-05T12:17:32.318Z,35.32
2017-05-05T12:19:56.566Z,36.09
2017-05-05T12:22:12.397Z,37.56
2017-05-05T12:24:36.676Z,37.68
2017-05-05T12:27:00.918Z,35.98
2017-05-05T12:29:16.736Z,34.56
2017-05-05T12:31:41.033Z,34.38
2017-05-05T12:34:05.323Z,36.38
2017-05-05T12:36:29.632Z,37.96
2017-05-05T12:38:53.870Z,36.94
2017-05-05T12:41:18.150Z,37.06
2017-05-05T12:43:33.966Z,36.85
2017-05-05T12:47:34.624Z,35.4
2017-05-05T12:49:58.926Z,33.8
2017-05-05T12:52:23.212Z,32.57
2017-05-05T12:54:47.525Z,31.81
2017-05-05T12:57:11.838Z,32.78
2017-05-05T12:59:36.096Z,33.7
2017-05-05T13:02:00.397Z,35.13
2017-05-05T13:04:24.679Z,37.31
2017-05-05T13:06:40.501Z,38.35
2017-05-05T13:09:04.762Z,36.52
2017-05-05T13:11:29.000Z,37.29
2017-05-05T13:13:44.785Z,36.35
2017-05-05T13:16:00.571Z,36.25
2017-05-05T13:18:25.797Z,37.1
2017-05-05T13:20:50.003Z,38.06
2017-05-05T13:22:51.928Z,37.77
2017-05-05T13:25:16.104Z,38.24
2017-05-05T13:27:31.930Z,39.95
2017-05-05T13:29:47.724Z,40.14
2017-05-05T13:32:03.499Z,38.91
2017-05-05T13:34:19.202Z,39.68
2017-05-05T13:36:43.372Z,40.16
2017-05-05T13:39:07.548Z,37.85
2017-05-05T13:41:23.296Z,38.04
2017-05-05T13:43:47.451Z,39.11
2017-05-05T13:46:11.608Z,37.68
2017-05-05T13:48:27.365Z,37.96
2017-05-05T13:50:37.805Z,37.68
2017-05-05T13:53:02.035Z,36.61
2017-05-05T13:55:26.235Z,36.44
2017-05-05T13:57:50.426Z,36.44
2017-05-05T14:00:14.611Z,35.69
2017-05-05T14:02:38.885Z,36.71
2017-05-05T14:05:03.167Z,36.06
2017-05-05T14:07:18.980Z,36.07
2017-05-05T14:09:43.237Z,35.96
2017-05-05T14:12:07.532Z,36.33
2017-05-05T14:14:31.720Z,36.93
2017-05-05T14:16:42.147Z,36.36
2017-05-05T14:19:13.019Z,37.29
2017-05-05T14:21:37.305Z,37.13
2017-05-05T14:24:01.581Z,37.7
2017-05-05T14:26:25.881Z,39.22
2017-05-05T14:28:50.168Z,39.12
2017-05-05T14:30:52.153Z,38.08
2017-05-05T14:32:45.603Z,38.26
2017-05-05T14:34:47.495Z,37.23
2017-05-05T14:37:03.330Z,37.21
2017-05-05T14:39:27.624Z,39.86
2017-05-05T14:41:51.812Z,38.91
2017-05-05T14:44:30.943Z,38.18
2017-05-05T14:46:55.225Z,37.89
2017-05-05T14:49:19.431Z,38.08
2017-05-05T14:51:44.645Z,39.39
2017-05-05T14:53:46.547Z,40.14
2017-05-05T14:56:10.872Z,40.34
2017-05-05T14:58:12.764Z,40.63
2017-05-05T15:00:37.027Z,38.83
2017-05-05T15:02:38.908Z,40.51
2017-05-05T15:05:03.157Z,40.53
2017-05-05T15:07:27.350Z,42.6
2017-05-05T15:09:51.537Z,41.01
2017-05-05T15:12:07.274Z,41.56
2017-05-05T15:14:17.210Z,41.55
2017-05-05T15:16:32.889Z,40.51
2017-05-05T15:18:57.035Z,41.64
2017-05-05T15:21:12.716Z,41.47
2017-05-05T15:23:28.401Z,41.18
2017-05-05T15:25:52.475Z,43.35
2017-05-05T15:28:16.568Z,42.97
2017-05-05T15:30:40.657Z,41.74
2017-05-05T15:33:04.735Z,42.1
2017-05-05T15:35:28.778Z,42.94
2017-05-05T15:37:52.797Z,42.49
2017-05-05T15:40:16.872Z,42.3
2017-05-05T15:42:40.952Z,41.64
2017-05-05T15:45:05.032Z,42.12
2017-05-05T15:47:30.155Z,40.8
2017-05-05T15:49:54.231Z,40.58
2017-05-05T15:52:18.308Z,40.88
2017-05-05T15:54:34.919Z,39.93
2017-05-05T15:57:05.543Z,40.12
2017-05-05T15:59:29.636Z,40.41
2017-05-05T16:01:53.622Z,39.93
2017-05-05T16:04:17.685Z,41.74
2017-05-05T16:06:42.695Z,41.83
2017-05-05T16:09:06.765Z,42.58
2017-05-05T16:13:07.031Z,41.26
2017-05-05T16:15:32.107Z,41.16
2017-05-05T16:18:02.838Z,41.28
2017-05-05T16:20:43.321Z,42.6
2017-05-05T16:23:08.323Z,41.93
2017-05-05T16:25:32.323Z,42
2017-05-05T16:27:34.175Z,41.99
2017-05-05T16:29:58.299Z,42.3
2017-05-05T16:32:23.306Z,42.1
2017-05-05T16:34:47.318Z,42.27
2017-05-05T16:37:18.989Z,41.45
2017-05-05T16:39:42.968Z,41.26
2017-05-05T16:42:06.940Z,40.78
2017-05-05T16:44:30.952Z,41.91
2017-05-05T16:46:54.926Z,41.33
2017-05-05T16:49:18.902Z,42.39
2017-05-05T16:51:43.655Z,42.1
2017-05-05T16:54:14.049Z,42.49
2017-05-05T16:56:44.563Z,43.23
2017-05-05T16:59:08.558Z,42.3
2017-05-05T17:01:32.551Z,42.39
2017-05-05T17:03:56.626Z,43.04
2017-05-05T17:06:21.652Z,42.3
2017-05-05T17:08:46.640Z,42.66
2017-05-05T17:11:19.641Z,42.3
2017-05-05T17:13:50.550Z,43.04
2017-05-05T17:16:16.681Z,43.04
2017-05-05T17:18:42.598Z,42.68
2017-05-05T17:20:58.200Z,43.23
2017-05-05T17:23:29.073Z,42.2
2017-05-05T17:25:55.074Z,43.04
2017-05-05T17:28:21.072Z,43.33
2017-05-05T17:30:51.634Z,44.27
2017-05-05T17:33:02.041Z,43.98
2017-05-05T17:35:26.960Z,43.98
2017-05-05T17:37:50.949Z,44.17
2017-05-05T17:40:15.015Z,44.27
2017-05-05T17:42:45.888Z,44.56
2017-05-05T17:45:09.733Z,45.98
2017-05-05T17:49:11.822Z,46
2017-05-05T17:54:48.081Z,45.81
2017-05-05T17:57:18.908Z,46.28
2017-05-05T17:59:42.757Z,47.03
2017-05-05T18:02:13.408Z,47.97
2017-05-05T18:04:37.318Z,48.25
2017-05-05T18:07:07.906Z,47.03
2017-05-05T18:09:31.773Z,46.65
2017-05-05T18:13:21.202Z,47.68
2017-05-05T18:15:51.678Z,47.22
2017-05-05T18:18:17.511Z,47.77
2017-05-05T18:20:41.284Z,47.71
2017-05-05T18:23:19.673Z,48.35
2017-05-05T18:25:35.001Z,48.64
2017-05-05T18:27:58.779Z,48.64
2017-05-05T18:30:22.559Z,48.74
2017-05-05T18:32:46.323Z,48.64
2017-05-05T18:35:10.143Z,49.69
2017-05-05T18:37:33.944Z,49.29
2017-05-05T18:41:34.050Z,50.34
2017-05-05T18:43:57.840Z,49.86
2017-05-05T18:46:21.603Z,50.05
2017-05-05T18:48:45.295Z,49.48
2017-05-05T18:51:09.030Z,50.05
2017-05-05T18:53:32.798Z,51.2
2017-05-05T18:55:56.569Z,50.73
2017-05-05T18:58:20.332Z,51.2
2017-05-05T19:00:44.067Z,51.3
2017-05-05T19:03:07.841Z,51.59
2017-05-05T19:05:31.618Z,52.04
2017-05-05T19:07:55.368Z,52.62
2017-05-05T19:10:19.104Z,51.75
2017-05-05T19:12:34.418Z,52.23
2017-05-05T19:14:58.163Z,52.26
2017-05-05T19:17:00.048Z,52.71
2017-05-05T19:20:51.636Z,53.83
2017-05-05T19:23:06.965Z,53.64
2017-05-05T19:25:30.673Z,53.83
2017-05-05T19:27:54.356Z,54.32
2017-05-05T19:30:18.023Z,54.12
2017-05-05T19:32:20.613Z,53.83
2017-05-05T19:34:21.858Z,54.12
2017-05-05T19:36:23.194Z,54.41
2017-05-05T19:38:46.817Z,55.46
2017-05-05T19:41:10.494Z,55.65
2017-05-05T19:43:20.248Z,55.18
2017-05-05T19:45:43.923Z,55.18
2017-05-05T19:48:07.610Z,55.94
2017-05-05T19:50:31.229Z,55.56
2017-05-05T19:52:54.880Z,55.85
2017-05-05T19:55:18.504Z,56.13
2017-05-05T19:57:42.168Z,56.71
2017-05-05T20:00:05.833Z,57.26
2017-05-05T20:02:30.434Z,56.77
2017-05-05T20:04:54.122Z,56.97
2017-05-05T20:07:18.752Z,57.83
2017-05-05T20:09:42.406Z,57.73
2017-05-05T20:12:06.012Z,58.66
2017-05-05T20:14:29.650Z,58.4
2017-05-05T20:16:53.288Z,59.43
2017-05-05T20:19:16.935Z,59.14
2017-05-05T20:21:40.582Z,59.52
2017-05-05T20:24:04.212Z,59.81
2017-05-05T20:26:27.910Z,59.43
2017-05-05T20:28:51.523Z,61.31
2017-05-05T20:31:15.172Z,60.48
2017-05-05T20:33:38.777Z,60.58
2017-05-05T20:36:02.331Z,61.12
2017-05-05T20:38:26.949Z,61.6
2017-05-05T20:40:50.472Z,60.86
2017-05-05T20:43:14.057Z,61.79
2017-05-05T20:45:37.645Z,63
2017-05-05T20:48:01.167Z,62.94
2017-05-05T20:50:24.731Z,62.9
2017-05-05T20:52:34.926Z,62.08
2017-05-05T20:54:59.572Z,62.37
2017-05-05T20:57:23.238Z,62.27
2017-05-05T20:59:47.014Z,62.33
2017-05-05T21:02:10.583Z,62.24
2017-05-05T21:04:25.765Z,63.1
2017-05-05T21:06:49.328Z,63.57
2017-05-05T21:09:14.955Z,63.29
2017-05-05T21:11:38.537Z,63.48
2017-05-05T21:14:02.082Z,63.86
2017-05-05T21:16:25.647Z,63.48
2017-05-05T21:18:49.239Z,63
2017-05-05T21:21:12.875Z,64.43
2017-05-05T21:23:36.375Z,63.57
2017-05-05T21:25:59.950Z,63.96
2017-05-05T21:28:23.500Z,63.86
2017-05-05T21:30:47.105Z,64.05
2017-05-05T21:33:10.643Z,63.96
2017-05-05T21:35:34.193Z,64.59
2017-05-05T21:37:49.388Z,64.69
2017-05-05T21:40:12.965Z,64.43
2017-05-05T21:42:36.524Z,64.62
2017-05-05T21:45:00.131Z,65.07
2017-05-05T21:47:23.675Z,66.22
2017-05-05T21:49:47.241Z,66.22
2017-05-05T21:51:49.021Z,65.84
2017-05-05T21:54:12.563Z,65.64
2017-05-05T21:56:36.131Z,64.82
2017-05-05T21:58:59.730Z,65.2
2017-05-05T22:01:23.267Z,65.26
2017-05-05T22:03:46.843Z,65.07
2017-05-05T22:06:10.404Z,65.3
2017-05-05T22:08:33.978Z,64.72
2017-05-05T22:10:57.549Z,65.84
2017-05-05T22:13:21.116Z,66.03
2017-05-05T22:15:44.686Z,66.13
2017-05-05T22:18:08.254Z,66.22
2017-05-05T22:20:31.829Z,65.55
2017-05-05T22:22:55.395Z,66.13
2017-05-05T22:25:18.968Z,66.13
2017-05-05T22:27:20.789Z,67.52
2017-05-05T22:29:22.433Z,67.43
2017-05-05T22:31:24.948Z,67.46
2017-05-05T22:33:48.532Z,68.29
2017-05-05T22:36:12.102Z,67.36
2017-05-05T22:38:35.676Z,67.14
2017-05-05T22:40:37.370Z,66.99
2017-05-05T22:43:01.889Z,66.79
2017-05-05T22:45:25.385Z,67.08
2017-05-05T22:47:48.957Z,67.52
2017-05-05T22:51:48.808Z,67.55
2017-05-05T22:54:12.344Z,67.55
2017-05-05T22:56:27.512Z,67.43
2017-05-05T22:58:50.994Z,68
2017-05-05T23:01:14.555Z,69.05
2017-05-05T23:03:38.131Z,69.43
2017-05-05T23:06:01.696Z,69.24
2017-05-05T23:08:25.164Z,69.24
2017-05-05T23:10:40.229Z,69.24
2017-05-05T23:13:03.698Z,69.4
2017-05-05T23:15:18.722Z,69.4
2017-05-05T23:17:42.243Z,69.15
2017-05-05T23:20:05.692Z,69.78
2017-05-05T23:22:20.776Z,70.07
2017-05-05T23:24:44.135Z,70.36
2017-05-05T23:26:59.226Z,69.87
2017-05-05T23:29:14.275Z,70.36
2017-05-05T23:31:37.754Z,70.36
2017-05-05T23:34:01.217Z,70.45
2017-05-05T23:36:16.318Z,69.97
2017-05-05T23:38:31.289Z,70.16
2017-05-05T23:40:54.736Z,70.45
2017-05-05T23:43:18.191Z,69.97
2017-05-05T23:45:41.657Z,69.97
2017-05-05T23:48:05.134Z,69.97
2017-05-05T23:50:28.640Z,69.78
2017-05-05T23:52:52.062Z,70.73
2017-05-05T23:55:15.516Z,70.83
2017-05-05T23:57:38.995Z,71.46
